createdAt,value
2023-04-26T00:00:37.555Z,936.74
2023-04-26T00:01:37.555Z,936.75
2023-04-26T00:02:37.779Z,936.75
2023-04-26T00:03:37.779Z,936.78
2023-04-26T00:04:37.774Z,936.76
2023-04-26T00:05:37.735Z,936.81
2023-04-26T00:06:37.734Z,936.77
2023-04-26T00:07:37.650Z,936.78
2023-04-26T00:08:37.662Z,936.79
2023-04-26T00:09:37.778Z,936.81
2023-04-26T00:10:37.686Z,936.87
2023-04-26T00:11:37.702Z,936.85
2023-04-26T00:12:37.719Z,936.88
2023-04-26T00:13:37.735Z,936.85
2023-04-26T00:14:37.752Z,936.83
2023-04-26T00:15:37.762Z,936.85
2023-04-26T00:16:37.792Z,936.83
2023-04-26T00:17:37.872Z,936.80
2023-04-26T00:18:37.797Z,936.81
2023-04-26T00:19:37.820Z,936.83
2023-04-26T00:20:37.839Z,936.85
2023-04-26T00:21:37.844Z,936.85
2023-04-26T00:22:37.870Z,936.86
2023-04-26T00:23:37.875Z,936.83
2023-04-26T00:24:37.895Z,936.86
2023-04-26T00:25:37.917Z,936.87
2023-04-26T00:26:37.931Z,936.83
2023-04-26T00:27:37.938Z,936.85
2023-04-26T00:28:38.047Z,936.86
2023-04-26T00:29:37.975Z,936.87
2023-04-26T00:30:37.975Z,936.86
2023-04-26T00:31:38.048Z,936.89
2023-04-26T00:32:38.052Z,936.88
2023-04-26T00:33:38.037Z,936.89
2023-04-26T00:34:38.169Z,936.83
2023-04-26T00:35:38.056Z,936.87
2023-04-26T00:36:38.064Z,936.83
2023-04-26T00:37:38.092Z,936.83
2023-04-26T00:38:38.097Z,936.83
2023-04-26T00:39:38.129Z,936.80
2023-04-26T00:40:38.123Z,936.81
2023-04-26T00:41:38.160Z,936.83
2023-04-26T00:42:38.175Z,936.78
2023-04-26T00:43:38.173Z,936.75
2023-04-26T00:44:38.183Z,936.71
2023-04-26T00:45:38.236Z,936.69
2023-04-26T00:46:38.222Z,936.63
2023-04-26T00:47:38.260Z,936.67
2023-04-26T00:48:38.263Z,936.62
2023-04-26T00:49:38.255Z,936.56
2023-04-26T00:50:38.300Z,936.57
2023-04-26T00:51:38.380Z,936.55
2023-04-26T00:52:38.305Z,936.55
2023-04-26T00:53:38.328Z,936.56
2023-04-26T00:54:38.356Z,936.53
2023-04-26T00:55:38.389Z,936.51
2023-04-26T00:56:38.482Z,936.46
2023-04-26T00:57:38.395Z,936.44
2023-04-26T00:58:38.402Z,936.46
2023-04-26T00:59:38.405Z,936.48
2023-04-26T01:00:38.424Z,936.43
2023-04-26T01:01:38.677Z,936.43
2023-04-26T01:02:38.675Z,936.41
2023-04-26T01:03:38.686Z,936.39
2023-04-26T01:04:38.484Z,936.41
2023-04-26T01:05:38.488Z,936.41
2023-04-26T01:06:38.690Z,936.47
2023-04-26T01:07:38.646Z,936.47
2023-04-26T01:08:38.539Z,936.52
2023-04-26T01:09:38.565Z,936.57
2023-04-26T01:10:38.560Z,936.55
2023-04-26T01:11:38.584Z,936.60
2023-04-26T01:12:38.588Z,936.64
2023-04-26T01:13:38.622Z,936.66
2023-04-26T01:14:38.633Z,936.69
2023-04-26T01:15:38.642Z,936.72
2023-04-26T01:16:38.734Z,936.70
2023-04-26T01:17:38.712Z,936.69
2023-04-26T01:18:38.683Z,936.71
2023-04-26T01:19:38.691Z,936.70
2023-04-26T01:20:38.704Z,936.72
2023-04-26T01:21:38.729Z,936.76
2023-04-26T01:22:38.745Z,936.75
2023-04-26T01:23:38.748Z,936.81
2023-04-26T01:24:38.766Z,936.81
2023-04-26T01:25:38.798Z,936.84
2023-04-26T01:26:38.798Z,936.79
2023-04-26T01:27:38.817Z,936.84
2023-04-26T01:28:38.839Z,936.85
2023-04-26T01:29:38.861Z,936.86
2023-04-26T01:30:38.866Z,936.88
2023-04-26T01:31:38.872Z,936.84
2023-04-26T01:32:38.919Z,936.78
2023-04-26T01:33:38.910Z,936.79
2023-04-26T01:34:38.923Z,936.78
2023-04-26T01:35:38.923Z,936.81
2023-04-26T01:36:38.936Z,936.83
2023-04-26T01:37:38.962Z,936.82
2023-04-26T01:38:38.974Z,936.84
2023-04-26T01:39:38.988Z,936.88
2023-04-26T01:40:39.006Z,936.90
2023-04-26T01:41:39.120Z,936.94
2023-04-26T01:42:39.021Z,936.91
2023-04-26T01:43:39.044Z,936.91
2023-04-26T01:44:39.052Z,936.93
2023-04-26T01:45:39.302Z,936.92
2023-04-26T01:46:39.342Z,936.92
2023-04-26T01:47:39.119Z,936.97
2023-04-26T01:48:39.109Z,936.94
2023-04-26T01:49:39.133Z,936.96
2023-04-26T01:50:39.146Z,936.93
2023-04-26T01:51:39.160Z,936.96
2023-04-26T01:52:39.275Z,936.96
2023-04-26T01:53:39.189Z,936.96
2023-04-26T01:54:39.199Z,937.00
2023-04-26T01:55:39.210Z,937.04
2023-04-26T01:56:39.260Z,937.03
2023-04-26T01:57:39.245Z,937.03
2023-04-26T01:58:39.358Z,937.02
2023-04-26T01:59:39.266Z,936.99
2023-04-26T02:00:39.290Z,936.96
2023-04-26T02:01:39.336Z,936.99
2023-04-26T02:02:39.488Z,936.98
2023-04-26T02:03:39.398Z,937.01
2023-04-26T02:04:39.527Z,937.01
2023-04-26T02:05:39.363Z,937.04
2023-04-26T02:06:39.414Z,937.05
2023-04-26T02:07:39.390Z,937.04
2023-04-26T02:08:39.404Z,937.01
2023-04-26T02:09:39.422Z,936.94
2023-04-26T02:10:39.433Z,936.89
2023-04-26T02:11:39.447Z,936.88
2023-04-26T02:12:39.457Z,936.86
2023-04-26T02:13:39.479Z,936.87
2023-04-26T02:14:39.492Z,936.88
2023-04-26T02:15:39.668Z,936.91
2023-04-26T02:16:39.551Z,936.87
2023-04-26T02:17:39.587Z,936.86
2023-04-26T02:18:39.548Z,936.84
2023-04-26T02:19:39.568Z,936.79
2023-04-26T02:20:39.673Z,936.78
2023-04-26T02:21:39.589Z,936.77
2023-04-26T02:22:39.615Z,936.72
2023-04-26T02:23:39.626Z,936.76
2023-04-26T02:24:39.632Z,936.74
2023-04-26T02:25:39.648Z,936.74
2023-04-26T02:26:39.658Z,936.72
2023-04-26T02:27:39.676Z,936.69
2023-04-26T02:28:39.731Z,936.68
2023-04-26T02:29:43.742Z,936.70
2023-04-26T02:30:39.754Z,936.69
2023-04-26T02:31:39.799Z,936.72
2023-04-26T02:32:39.812Z,936.73
2023-04-26T02:33:39.788Z,936.73
2023-04-26T02:34:39.779Z,936.74
2023-04-26T02:35:39.805Z,936.75
2023-04-26T02:36:39.811Z,936.75
2023-04-26T02:37:39.825Z,936.78
2023-04-26T02:38:39.833Z,936.81
2023-04-26T02:39:39.852Z,936.82
2023-04-26T02:40:39.865Z,936.87
2023-04-26T02:41:39.888Z,936.92
2023-04-26T02:42:39.895Z,936.90
2023-04-26T02:43:39.919Z,936.90
2023-04-26T02:44:40.157Z,936.95
2023-04-26T02:45:39.942Z,936.95
2023-04-26T02:46:39.984Z,936.94
2023-04-26T02:47:40.107Z,936.91
2023-04-26T02:48:39.986Z,936.93
2023-04-26T02:49:40.110Z,936.95
2023-04-26T02:50:40.031Z,936.95
2023-04-26T02:51:40.040Z,936.90
2023-04-26T02:52:40.041Z,936.89
2023-04-26T02:53:40.069Z,936.92
2023-04-26T02:54:40.066Z,936.92
2023-04-26T02:55:40.073Z,936.92
2023-04-26T02:56:40.092Z,936.91
2023-04-26T02:57:40.104Z,936.88
2023-04-26T02:58:40.126Z,936.89
2023-04-26T02:59:40.140Z,936.88
2023-04-26T03:00:40.271Z,936.87
2023-04-26T03:01:40.202Z,936.89
2023-04-26T03:02:40.335Z,936.83
2023-04-26T03:03:40.262Z,936.81
2023-04-26T03:04:40.211Z,936.83
2023-04-26T03:05:40.238Z,936.81
2023-04-26T03:06:40.234Z,936.81
2023-04-26T03:07:40.251Z,936.84
2023-04-26T03:08:40.261Z,936.82
2023-04-26T03:09:40.287Z,936.81
2023-04-26T03:10:40.310Z,936.81
2023-04-26T03:11:40.406Z,936.81
2023-04-26T03:12:40.320Z,936.82
2023-04-26T03:13:40.363Z,936.79
2023-04-26T03:14:40.353Z,936.78
2023-04-26T03:15:40.369Z,936.79
2023-04-26T03:16:40.425Z,936.74
2023-04-26T03:17:40.413Z,936.74
2023-04-26T03:18:40.411Z,936.72
2023-04-26T03:19:40.424Z,936.70
2023-04-26T03:20:40.850Z,936.70
2023-04-26T03:21:40.469Z,936.68
2023-04-26T03:22:40.480Z,936.65
2023-04-26T03:23:40.485Z,936.65
2023-04-26T03:24:40.492Z,936.64
2023-04-26T03:25:40.507Z,936.64
2023-04-26T03:26:40.527Z,936.63
2023-04-26T03:27:40.565Z,936.66
2023-04-26T03:28:40.681Z,936.64
2023-04-26T03:29:42.749Z,936.65
2023-04-26T03:30:40.579Z,936.64
2023-04-26T03:31:40.641Z,936.64
2023-04-26T03:32:40.646Z,936.58
2023-04-26T03:33:40.635Z,936.60
2023-04-26T03:34:40.640Z,936.58
2023-04-26T03:35:40.661Z,936.58
2023-04-26T03:36:40.674Z,936.57
2023-04-26T03:37:40.710Z,936.55
2023-04-26T03:38:40.694Z,936.58
2023-04-26T03:39:40.716Z,936.55
2023-04-26T03:40:40.732Z,936.59
2023-04-26T03:41:40.743Z,936.54
2023-04-26T03:42:40.757Z,936.52
2023-04-26T03:43:40.774Z,936.51
2023-04-26T03:44:40.818Z,936.49
2023-04-26T03:45:40.805Z,936.50
2023-04-26T03:46:40.841Z,936.53
2023-04-26T03:47:40.843Z,936.48
2023-04-26T03:48:40.850Z,936.45
2023-04-26T03:49:40.869Z,936.50
2023-04-26T03:50:40.942Z,936.45
2023-04-26T03:51:40.988Z,936.45
2023-04-26T03:52:40.905Z,936.46
2023-04-26T03:53:40.934Z,936.49
2023-04-26T03:54:40.944Z,936.46
2023-04-26T03:55:40.944Z,936.47
2023-04-26T03:56:40.961Z,936.43
2023-04-26T03:57:40.964Z,936.42
2023-04-26T03:58:40.978Z,936.42
2023-04-26T03:59:41.000Z,936.43
2023-04-26T04:00:41.012Z,936.43
2023-04-26T04:01:41.031Z,936.42
2023-04-26T04:02:41.147Z,936.38
2023-04-26T04:03:41.710Z,936.37
2023-04-26T04:04:41.158Z,936.35
2023-04-26T04:05:41.230Z,936.31
2023-04-26T04:06:41.099Z,936.30
2023-04-26T04:07:41.104Z,936.29
2023-04-26T04:08:41.120Z,936.28
2023-04-26T04:09:41.175Z,936.25
2023-04-26T04:10:41.153Z,936.26
2023-04-26T04:11:41.162Z,936.26
2023-04-26T04:12:41.190Z,936.27
2023-04-26T04:13:41.199Z,936.25
2023-04-26T04:14:41.205Z,936.24
2023-04-26T04:15:41.264Z,936.28
2023-04-26T04:16:41.235Z,936.25
2023-04-26T04:17:41.277Z,936.25
2023-04-26T04:18:41.266Z,936.24
2023-04-26T04:19:41.275Z,936.23
2023-04-26T04:20:41.303Z,936.22
2023-04-26T04:21:41.306Z,936.22
2023-04-26T04:22:41.319Z,936.20
2023-04-26T04:23:41.342Z,936.17
2023-04-26T04:24:41.348Z,936.15
2023-04-26T04:25:41.605Z,936.14
2023-04-26T04:26:41.375Z,936.14
2023-04-26T04:27:41.389Z,936.10
2023-04-26T04:28:41.419Z,936.10
2023-04-26T04:29:41.417Z,936.06
2023-04-26T04:30:41.439Z,936.06
2023-04-26T04:31:41.841Z,936.06
2023-04-26T04:32:41.489Z,936.06
2023-04-26T04:33:41.578Z,936.07
2023-04-26T04:34:41.496Z,936.08
2023-04-26T04:35:41.509Z,936.02
2023-04-26T04:36:41.527Z,936.06
2023-04-26T04:37:41.633Z,936.08
2023-04-26T04:38:41.543Z,936.06
2023-04-26T04:39:41.569Z,936.07
2023-04-26T04:40:41.585Z,936.03
2023-04-26T04:41:41.620Z,936.04
2023-04-26T04:42:41.703Z,936.07
2023-04-26T04:43:41.625Z,936.07
2023-04-26T04:44:41.638Z,936.05
2023-04-26T04:45:41.653Z,936.05
2023-04-26T04:46:41.716Z,936.06
2023-04-26T04:47:41.717Z,936.01
2023-04-26T04:48:41.694Z,936.03
2023-04-26T04:49:41.717Z,936.01
2023-04-26T04:50:41.726Z,936.05
2023-04-26T04:51:41.726Z,935.98
2023-04-26T04:52:41.744Z,936.00
2023-04-26T04:53:41.761Z,935.98
2023-04-26T04:54:41.778Z,935.96
2023-04-26T04:55:41.785Z,935.95
2023-04-26T04:56:41.799Z,935.96
2023-04-26T04:57:42.992Z,935.93
2023-04-26T04:58:41.838Z,935.93
2023-04-26T04:59:41.861Z,935.92
2023-04-26T05:00:41.882Z,935.92
2023-04-26T05:01:41.919Z,935.93
2023-04-26T05:02:42.008Z,935.89
2023-04-26T05:03:42.088Z,935.81
2023-04-26T05:04:42.112Z,935.81
2023-04-26T05:05:41.928Z,935.81
2023-04-26T05:06:41.941Z,935.76
2023-04-26T05:07:41.973Z,935.75
2023-04-26T05:08:41.980Z,935.69
2023-04-26T05:09:41.995Z,935.73
2023-04-26T05:10:42.107Z,935.66
2023-04-26T05:11:42.013Z,935.65
2023-04-26T05:12:42.032Z,935.63
2023-04-26T05:13:42.066Z,935.62
2023-04-26T05:14:42.057Z,935.62
2023-04-26T05:15:42.068Z,935.56
2023-04-26T05:16:42.116Z,935.57
2023-04-26T05:17:42.114Z,935.51
2023-04-26T05:18:42.113Z,935.49
2023-04-26T05:19:42.140Z,935.46
2023-04-26T05:20:42.156Z,935.48
2023-04-26T05:21:42.158Z,935.50
2023-04-26T05:22:42.177Z,935.49
2023-04-26T05:23:42.197Z,935.49
2023-04-26T05:24:42.200Z,935.49
2023-04-26T05:25:42.221Z,935.47
2023-04-26T05:26:42.235Z,935.46
2023-04-26T05:27:42.243Z,935.43
2023-04-26T05:28:42.355Z,935.41
2023-04-26T05:29:42.297Z,935.40
2023-04-26T05:30:42.290Z,935.39
2023-04-26T05:31:42.329Z,935.38
2023-04-26T05:32:42.324Z,935.38
2023-04-26T05:33:42.326Z,935.34
2023-04-26T05:34:42.357Z,935.33
2023-04-26T05:35:42.363Z,935.29
2023-04-26T05:36:42.369Z,935.32
2023-04-26T05:37:42.383Z,935.29
2023-04-26T05:38:42.395Z,935.29
2023-04-26T05:39:42.517Z,935.32
2023-04-26T05:40:42.432Z,935.32
2023-04-26T05:41:42.449Z,935.29
2023-04-26T05:42:42.461Z,935.30
2023-04-26T05:43:42.467Z,935.29
2023-04-26T05:44:42.487Z,935.24
2023-04-26T05:45:42.633Z,935.25
2023-04-26T05:46:42.510Z,935.19
2023-04-26T05:47:42.556Z,935.20
2023-04-26T05:48:42.545Z,935.19
2023-04-26T05:49:42.553Z,935.19
2023-04-26T05:50:42.565Z,935.22
2023-04-26T05:51:42.700Z,935.21
2023-04-26T05:52:42.603Z,935.22
2023-04-26T05:53:42.612Z,935.25
2023-04-26T05:54:42.619Z,935.30
2023-04-26T05:55:42.645Z,935.20
2023-04-26T05:56:42.705Z,935.27
2023-04-26T05:57:42.711Z,935.25
2023-04-26T05:58:42.674Z,935.22
2023-04-26T05:59:42.699Z,935.22
2023-04-26T06:00:42.722Z,935.23
2023-04-26T06:01:42.762Z,935.23
2023-04-26T06:02:42.918Z,935.20
2023-04-26T06:03:42.937Z,935.19
2023-04-26T06:04:43.115Z,935.19
2023-04-26T06:05:42.859Z,935.19
2023-04-26T06:06:42.816Z,935.21
2023-04-26T06:07:42.808Z,935.16
2023-04-26T06:08:42.823Z,935.16
2023-04-26T06:09:42.833Z,935.17
2023-04-26T06:10:42.843Z,935.14
2023-04-26T06:11:42.853Z,935.15
2023-04-26T06:12:42.872Z,935.17
2023-04-26T06:13:42.900Z,935.12
2023-04-26T06:14:42.906Z,935.15
2023-04-26T06:15:42.934Z,935.17
2023-04-26T06:16:43.711Z,935.15
2023-04-26T06:17:42.983Z,935.11
2023-04-26T06:18:42.954Z,935.11
2023-04-26T06:19:42.976Z,935.07
2023-04-26T06:20:42.992Z,935.09
2023-04-26T06:21:43.000Z,935.07
2023-04-26T06:22:43.015Z,935.07
2023-04-26T06:23:43.030Z,935.09
2023-04-26T06:24:43.035Z,935.09
2023-04-26T06:25:43.051Z,935.08
2023-04-26T06:26:43.072Z,935.09
2023-04-26T06:27:43.093Z,935.10
2023-04-26T06:28:43.108Z,935.03
2023-04-26T06:29:43.112Z,935.02
2023-04-26T06:30:43.211Z,934.99
2023-04-26T06:31:43.138Z,934.97
2023-04-26T06:32:43.192Z,935.00
2023-04-26T06:33:43.205Z,934.97
2023-04-26T06:34:43.181Z,934.97
2023-04-26T06:35:43.203Z,935.05
2023-04-26T06:36:43.213Z,935.05
2023-04-26T06:37:43.330Z,935.04
2023-04-26T06:38:43.237Z,935.06
2023-04-26T06:39:43.247Z,935.01
2023-04-26T06:40:43.270Z,934.98
2023-04-26T06:41:43.282Z,935.00
2023-04-26T06:42:43.303Z,934.98
2023-04-26T06:43:43.429Z,934.98
2023-04-26T06:44:43.524Z,934.98
2023-04-26T06:45:43.729Z,934.96
2023-04-26T06:46:43.580Z,934.96
2023-04-26T06:47:43.421Z,934.97
2023-04-26T06:48:43.381Z,935.01
2023-04-26T06:49:43.468Z,935.01
2023-04-26T06:50:43.413Z,935.04
2023-04-26T06:51:43.420Z,935.03
2023-04-26T06:52:43.430Z,935.01
2023-04-26T06:53:43.490Z,934.99
2023-04-26T06:54:56.117Z,935.00
2023-04-26T06:55:43.481Z,935.00
2023-04-26T06:56:43.496Z,935.02
2023-04-26T06:57:43.515Z,935.03
2023-04-26T06:58:43.525Z,935.05
2023-04-26T06:59:43.530Z,935.03
2023-04-26T07:00:43.545Z,935.07
2023-04-26T07:01:43.615Z,935.05
2023-04-26T07:02:43.688Z,935.02
2023-04-26T07:03:43.764Z,935.03
2023-04-26T07:04:43.997Z,934.99
2023-04-26T07:05:43.660Z,935.00
2023-04-26T07:06:43.631Z,934.96
2023-04-26T07:07:43.646Z,934.97
2023-04-26T07:08:43.678Z,934.93
2023-04-26T07:09:43.674Z,934.95
2023-04-26T07:10:43.698Z,935.00
2023-04-26T07:11:43.697Z,934.98
2023-04-26T07:12:43.844Z,934.94
2023-04-26T07:13:43.726Z,934.90
2023-04-26T07:14:43.751Z,934.89
2023-04-26T07:15:43.807Z,934.90
2023-04-26T07:16:44.672Z,934.87
2023-04-26T07:17:43.807Z,934.83
2023-04-26T07:18:44.403Z,934.81
2023-04-26T07:19:43.836Z,934.78
2023-04-26T07:20:43.835Z,934.80
2023-04-26T07:21:43.865Z,934.82
2023-04-26T07:22:43.849Z,934.82
2023-04-26T07:23:43.965Z,934.80
2023-04-26T07:24:43.886Z,934.81
2023-04-26T07:25:43.905Z,934.82
2023-04-26T07:26:43.913Z,934.84
2023-04-26T07:27:43.922Z,934.81
2023-04-26T07:28:43.949Z,934.82
2023-04-26T07:29:43.952Z,934.83
2023-04-26T07:30:43.963Z,934.81
2023-04-26T07:31:43.982Z,934.81
2023-04-26T07:32:44.094Z,934.84
2023-04-26T07:33:44.059Z,934.82
2023-04-26T07:34:44.128Z,934.80
2023-04-26T07:35:44.043Z,934.81
2023-04-26T07:36:44.055Z,934.80
2023-04-26T07:37:44.159Z,934.77
2023-04-26T07:38:44.092Z,934.79
2023-04-26T07:39:44.095Z,934.80
2023-04-26T07:40:44.112Z,934.78
2023-04-26T07:41:44.307Z,934.78
2023-04-26T07:42:44.134Z,934.77
2023-04-26T07:43:44.150Z,934.77
2023-04-26T07:44:44.155Z,934.79
2023-04-26T07:45:44.208Z,934.80
2023-04-26T07:46:44.195Z,934.78
2023-04-26T07:47:44.246Z,934.79
2023-04-26T07:48:44.220Z,934.80
2023-04-26T07:49:45.781Z,934.79
2023-04-26T07:50:44.445Z,934.76
2023-04-26T07:51:44.353Z,934.71
2023-04-26T07:52:44.277Z,934.70
2023-04-26T07:53:44.409Z,934.69
2023-04-26T07:54:44.303Z,934.72
2023-04-26T07:55:44.325Z,934.69
2023-04-26T07:56:44.336Z,934.70
2023-04-26T07:57:44.438Z,934.75
2023-04-26T07:58:44.358Z,934.73
2023-04-26T07:59:44.383Z,934.74
2023-04-26T08:00:44.379Z,934.71
2023-04-26T08:01:44.430Z,934.75
2023-04-26T08:02:45.641Z,934.69
2023-04-26T08:03:44.665Z,934.68
2023-04-26T08:04:44.596Z,934.65
2023-04-26T08:05:44.722Z,934.63
2023-04-26T08:06:44.462Z,934.65
2023-04-26T08:07:44.490Z,934.66
2023-04-26T08:08:44.572Z,934.61
2023-04-26T08:09:44.536Z,934.59
2023-04-26T08:10:44.525Z,934.59
2023-04-26T08:11:44.636Z,934.56
2023-04-26T08:12:44.550Z,934.62
2023-04-26T08:13:44.566Z,934.59
2023-04-26T08:14:44.580Z,934.59
2023-04-26T08:15:44.591Z,934.61
2023-04-26T08:16:44.639Z,934.63
2023-04-26T08:17:44.669Z,934.61
2023-04-26T08:18:46.834Z,934.55
2023-04-26T08:19:44.648Z,934.55
2023-04-26T08:20:44.763Z,934.56
2023-04-26T08:21:44.671Z,934.57
2023-04-26T08:22:44.690Z,934.60
2023-04-26T08:23:44.704Z,934.61
2023-04-26T08:24:44.713Z,934.64
2023-04-26T08:25:46.017Z,934.67
2023-04-26T08:26:44.748Z,934.64
2023-04-26T08:27:44.768Z,934.64
2023-04-26T08:28:44.776Z,934.64
2023-04-26T08:29:44.797Z,934.67
2023-04-26T08:30:44.841Z,934.68
2023-04-26T08:31:44.823Z,934.70
2023-04-26T08:32:44.849Z,934.66
2023-04-26T08:33:44.849Z,934.70
2023-04-26T08:34:44.853Z,934.65
2023-04-26T08:35:44.884Z,934.67
2023-04-26T08:36:44.876Z,934.68
2023-04-26T08:37:44.900Z,934.69
2023-04-26T08:38:44.907Z,934.69
2023-04-26T08:39:44.941Z,934.70
2023-04-26T08:40:44.937Z,934.67
2023-04-26T08:41:45.030Z,934.70
2023-04-26T08:42:44.981Z,934.66
2023-04-26T08:43:45.086Z,934.71
2023-04-26T08:44:44.988Z,934.68
2023-04-26T08:45:45.010Z,934.69
2023-04-26T08:46:45.085Z,934.69
2023-04-26T08:47:45.071Z,934.69
2023-04-26T08:48:45.049Z,934.65
2023-04-26T08:49:45.057Z,934.64
2023-04-26T08:50:45.079Z,934.68
2023-04-26T08:51:45.090Z,934.68
2023-04-26T08:52:45.118Z,934.67
2023-04-26T08:53:45.113Z,934.72
2023-04-26T08:54:45.126Z,934.70
2023-04-26T08:55:45.141Z,934.74
2023-04-26T08:56:45.157Z,934.74
2023-04-26T08:57:45.297Z,934.76
2023-04-26T08:58:45.191Z,934.80
2023-04-26T08:59:45.196Z,934.82
2023-04-26T09:00:45.227Z,934.84
2023-04-26T09:01:45.265Z,934.91
2023-04-26T09:02:45.331Z,934.93
2023-04-26T09:03:45.372Z,934.97
2023-04-26T09:04:45.381Z,934.99
2023-04-26T09:05:45.378Z,935.01
2023-04-26T09:06:45.306Z,935.05
2023-04-26T09:07:45.306Z,935.07
2023-04-26T09:08:45.331Z,935.06
2023-04-26T09:09:45.336Z,935.10
2023-04-26T09:10:45.351Z,935.10
2023-04-26T09:11:45.370Z,935.12
2023-04-26T09:12:45.382Z,935.11
2023-04-26T09:13:45.431Z,935.15
2023-04-26T09:14:45.405Z,935.12
2023-04-26T09:15:45.435Z,935.13
2023-04-26T09:16:45.494Z,935.15
2023-04-26T09:17:45.501Z,935.13
2023-04-26T09:18:45.665Z,935.14
2023-04-26T09:19:45.482Z,935.17
2023-04-26T09:20:45.490Z,935.16
2023-04-26T09:21:45.543Z,935.16
2023-04-26T09:22:45.532Z,935.18
2023-04-26T09:23:45.534Z,935.18
2023-04-26T09:24:45.548Z,935.15
2023-04-26T09:25:45.555Z,935.15
2023-04-26T09:26:45.573Z,935.12
2023-04-26T09:27:45.593Z,935.11
2023-04-26T09:28:45.607Z,935.08
2023-04-26T09:29:45.709Z,935.09
2023-04-26T09:30:45.622Z,935.07
2023-04-26T09:31:48.698Z,935.03
2023-04-26T09:32:45.740Z,935.01
2023-04-26T09:33:45.670Z,934.99
2023-04-26T09:34:45.778Z,934.96
2023-04-26T09:35:45.708Z,934.99
2023-04-26T09:36:45.706Z,934.99
2023-04-26T09:37:57.251Z,935.00
2023-04-26T09:38:45.753Z,934.94
2023-04-26T09:39:45.846Z,934.96
2023-04-26T09:40:45.766Z,934.94
2023-04-26T09:41:45.848Z,934.98
2023-04-26T09:42:45.788Z,934.99
2023-04-26T09:43:45.816Z,935.00
2023-04-26T09:44:45.822Z,934.97
2023-04-26T09:45:46.075Z,935.01
2023-04-26T09:46:45.889Z,935.03
2023-04-26T09:47:45.910Z,935.05
2023-04-26T09:48:46.664Z,935.03
2023-04-26T09:49:45.898Z,935.02
2023-04-26T09:50:45.905Z,935.04
2023-04-26T09:51:45.911Z,935.05
2023-04-26T09:52:45.933Z,935.08
2023-04-26T09:53:45.947Z,935.13
2023-04-26T09:54:45.962Z,935.13
2023-04-26T09:55:45.975Z,935.16
2023-04-26T09:56:45.991Z,935.16
2023-04-26T09:57:45.994Z,935.18
2023-04-26T09:58:46.033Z,935.21
2023-04-26T09:59:46.022Z,935.21
2023-04-26T10:00:46.068Z,935.23
2023-04-26T10:01:46.170Z,935.20
2023-04-26T10:02:46.132Z,935.22
2023-04-26T10:03:46.273Z,935.22
2023-04-26T10:04:46.116Z,935.23
2023-04-26T10:05:46.109Z,935.21
2023-04-26T10:06:46.125Z,935.24
2023-04-26T10:07:46.141Z,935.32
2023-04-26T10:08:46.154Z,935.32
2023-04-26T10:09:46.195Z,935.29
2023-04-26T10:10:46.174Z,935.37
2023-04-26T10:11:46.194Z,935.33
2023-04-26T10:12:46.200Z,935.34
2023-04-26T10:13:46.229Z,935.34
2023-04-26T10:14:46.233Z,935.33
2023-04-26T10:15:46.259Z,935.33
2023-04-26T10:16:46.302Z,935.36
2023-04-26T10:17:46.441Z,935.39
2023-04-26T10:18:46.291Z,935.42
2023-04-26T10:19:46.436Z,935.42
2023-04-26T10:20:46.523Z,935.42
2023-04-26T10:21:46.332Z,935.45
2023-04-26T10:22:46.349Z,935.44
2023-04-26T10:23:46.358Z,935.42
2023-04-26T10:24:46.379Z,935.43
2023-04-26T10:25:46.479Z,935.45
2023-04-26T10:26:46.397Z,935.45
2023-04-26T10:27:46.406Z,935.42
2023-04-26T10:28:46.433Z,935.45
2023-04-26T10:29:46.440Z,935.46
2023-04-26T10:30:46.462Z,935.47
2023-04-26T10:31:46.595Z,935.46
2023-04-26T10:32:46.543Z,935.45
2023-04-26T10:33:46.511Z,935.46
2023-04-26T10:34:46.512Z,935.47
2023-04-26T10:35:46.523Z,935.48
2023-04-26T10:36:46.534Z,935.46
2023-04-26T10:37:46.659Z,935.51
2023-04-26T10:38:46.561Z,935.52
2023-04-26T10:39:46.658Z,935.53
2023-04-26T10:40:46.587Z,935.61
2023-04-26T10:41:46.602Z,935.58
2023-04-26T10:42:46.827Z,935.60
2023-04-26T10:43:46.639Z,935.64
2023-04-26T10:44:46.646Z,935.67
2023-04-26T10:45:46.717Z,935.69
2023-04-26T10:46:46.679Z,935.68
2023-04-26T10:47:46.756Z,935.68
2023-04-26T10:48:46.704Z,935.71
2023-04-26T10:49:46.740Z,935.75
2023-04-26T10:50:46.736Z,935.74
2023-04-26T10:51:46.748Z,935.78
2023-04-26T10:52:46.757Z,935.81
2023-04-26T10:53:46.772Z,935.82
2023-04-26T10:54:46.794Z,935.81
2023-04-26T10:55:46.805Z,935.78
2023-04-26T10:56:46.809Z,935.78
2023-04-26T10:57:46.834Z,935.81
2023-04-26T10:58:46.841Z,935.83
2023-04-26T10:59:54.357Z,935.81
2023-04-26T11:00:46.886Z,935.81
2023-04-26T11:01:46.972Z,935.79
2023-04-26T11:02:46.957Z,935.82
2023-04-26T11:03:47.117Z,935.79
2023-04-26T11:04:46.953Z,935.77
2023-04-26T11:05:47.006Z,935.74
2023-04-26T11:06:46.971Z,935.73
2023-04-26T11:07:46.968Z,935.76
2023-04-26T11:08:46.984Z,935.80
2023-04-26T11:09:47.003Z,935.80
2023-04-26T11:10:47.010Z,935.82
2023-04-26T11:11:47.016Z,935.83
2023-04-26T11:12:47.040Z,935.93
2023-04-26T11:13:47.045Z,935.90
2023-04-26T11:14:47.058Z,935.94
2023-04-26T11:15:47.519Z,935.95
2023-04-26T11:16:47.109Z,935.97
2023-04-26T11:17:47.132Z,935.93
2023-04-26T11:18:47.223Z,935.97
2023-04-26T11:19:47.123Z,936.04
2023-04-26T11:20:47.155Z,935.98
2023-04-26T11:21:47.261Z,935.98
2023-04-26T11:22:47.171Z,936.04
2023-04-26T11:23:47.183Z,936.02
2023-04-26T11:24:47.199Z,936.06
2023-04-26T11:25:47.252Z,936.05
2023-04-26T11:26:47.231Z,936.07
2023-04-26T11:27:47.237Z,936.09
2023-04-26T11:28:47.258Z,936.06
2023-04-26T11:29:47.268Z,936.02
2023-04-26T11:30:47.277Z,936.05
2023-04-26T11:31:47.326Z,936.00
2023-04-26T11:32:47.314Z,935.99
2023-04-26T11:33:49.186Z,936.01
2023-04-26T11:34:47.341Z,936.02
2023-04-26T11:35:47.458Z,936.00
2023-04-26T11:36:47.371Z,936.03
2023-04-26T11:37:47.395Z,936.00
2023-04-26T11:38:47.419Z,935.99
2023-04-26T11:39:47.402Z,936.03
2023-04-26T11:40:47.425Z,935.96
2023-04-26T11:41:47.438Z,935.99
2023-04-26T11:42:47.442Z,936.01
2023-04-26T11:43:47.487Z,935.98
2023-04-26T11:44:48.043Z,935.94
2023-04-26T11:45:47.482Z,935.96
2023-04-26T11:46:47.535Z,935.97
2023-04-26T11:47:47.542Z,935.98
2023-04-26T11:48:47.538Z,935.93
2023-04-26T11:49:47.555Z,935.91
2023-04-26T11:50:47.554Z,935.89
2023-04-26T11:51:47.575Z,935.92
2023-04-26T11:52:47.582Z,935.94
2023-04-26T11:53:47.652Z,935.98
2023-04-26T11:54:47.611Z,935.98
2023-04-26T11:55:47.624Z,935.98
2023-04-26T11:56:47.643Z,935.97
2023-04-26T11:57:47.663Z,935.98
2023-04-26T11:58:47.660Z,936.02
2023-04-26T11:59:47.677Z,935.96
2023-04-26T12:00:47.696Z,935.98
2023-04-26T12:01:47.762Z,935.96
2023-04-26T12:02:47.840Z,936.00
2023-04-26T12:03:47.898Z,935.99
2023-04-26T12:04:48.144Z,935.97
2023-04-26T12:05:47.860Z,935.96
2023-04-26T12:06:47.774Z,935.97
2023-04-26T12:07:47.804Z,935.97
2023-04-26T12:08:47.832Z,935.91
2023-04-26T12:09:47.881Z,935.93
2023-04-26T12:10:47.834Z,935.90
2023-04-26T12:11:47.851Z,935.94
2023-04-26T12:12:47.864Z,935.98
2023-04-26T12:13:47.880Z,935.94
2023-04-26T12:14:47.897Z,935.96
2023-04-26T12:15:47.909Z,935.98
2023-04-26T12:16:47.982Z,935.96
2023-04-26T12:17:47.953Z,935.93
2023-04-26T12:18:47.946Z,935.87
2023-04-26T12:19:47.954Z,935.95
2023-04-26T12:20:47.973Z,935.99
2023-04-26T12:21:47.988Z,935.97
2023-04-26T12:22:48.007Z,935.99
2023-04-26T12:23:48.037Z,936.04
2023-04-26T12:24:48.025Z,936.08
2023-04-26T12:25:48.267Z,936.06
2023-04-26T12:26:48.054Z,936.13
2023-04-26T12:27:48.171Z,936.16
2023-04-26T12:28:48.091Z,936.12